createdAt,value
2019-02-26T00:00:07.639Z,11.83
2019-02-26T00:02:41.550Z,11.23
2019-02-26T00:05:12.612Z,11.20
2019-02-26T00:07:44.356Z,10.63
2019-02-26T00:10:16.219Z,10.97
2019-02-26T00:12:47.137Z,10.37
2019-02-26T00:15:18.053Z,9.67
2019-02-26T00:17:50.770Z,9.40
2019-02-26T00:20:21.610Z,9.60
2019-02-26T00:22:53.566Z,8.57
2019-02-26T00:25:25.126Z,9.87
2019-02-26T00:27:56.902Z,9.47
2019-02-26T00:30:28.749Z,9.27
2019-02-26T00:33:02.505Z,9.57
2019-02-26T00:35:32.409Z,9.40
2019-02-26T00:38:03.305Z,9.23
2019-02-26T00:40:36.532Z,8.90
2019-02-26T00:43:06.915Z,8.23
2019-02-26T00:45:39.061Z,9.47
2019-02-26T00:48:10.092Z,8.47
2019-02-26T00:50:41.049Z,8.23
2019-02-26T00:53:11.942Z,8.37
2019-02-26T00:55:42.863Z,8.83
2019-02-26T00:58:13.774Z,7.90
2019-02-26T01:00:44.701Z,7.57
2019-02-26T01:03:15.592Z,7.23
2019-02-26T01:05:46.553Z,6.90
2019-02-26T01:08:19.623Z,7.60
2019-02-26T01:10:50.162Z,6.93
2019-02-26T01:13:22.412Z,6.73
2019-02-26T01:15:53.962Z,6.43
2019-02-26T01:18:26.779Z,5.63
2019-02-26T01:21:00.295Z,6.80
2019-02-26T01:23:31.685Z,6.53
2019-02-26T01:26:02.601Z,6.60
2019-02-26T01:28:33.568Z,7.10
2019-02-26T01:31:07.282Z,7.63
2019-02-26T01:33:38.034Z,7.27
2019-02-26T01:36:08.984Z,8.13
2019-02-26T01:38:41.652Z,7.17
2019-02-26T01:41:13.866Z,6.53
2019-02-26T01:43:45.082Z,7.77
2019-02-26T01:46:18.226Z,6.40
2019-02-26T01:48:48.613Z,7.70
2019-02-26T01:51:21.801Z,8.90
2019-02-26T01:53:53.682Z,7.40
2019-02-26T01:56:24.658Z,7.87
2019-02-26T01:58:56.925Z,7.80
2019-02-26T02:01:28.174Z,7.77
2019-02-26T02:03:59.103Z,7.67
2019-02-26T02:06:30.822Z,8.50
2019-02-26T02:09:02.605Z,8.37
2019-02-26T02:11:35.731Z,8.13
2019-02-26T02:14:08.061Z,8.60
2019-02-26T02:16:38.837Z,8.17
2019-02-26T02:19:09.786Z,7.13
2019-02-26T02:21:40.790Z,7.67
2019-02-26T02:24:15.075Z,8.33
2019-02-26T02:26:48.236Z,7.80
2019-02-26T02:29:19.192Z,8.50
2019-02-26T02:31:52.333Z,8.40
2019-02-26T02:34:27.021Z,8.30
2019-02-26T02:36:57.321Z,8.57
2019-02-26T02:39:29.218Z,9.13
2019-02-26T02:42:00.312Z,8.60
2019-02-26T02:44:31.214Z,8.53
2019-02-26T02:47:04.283Z,10.40
2019-02-26T02:49:37.461Z,10.43
2019-02-26T02:52:09.593Z,9.77
2019-02-26T02:54:41.207Z,9.80
2019-02-26T02:57:12.700Z,9.27
2019-02-26T02:59:43.594Z,8.60
2019-02-26T03:02:17.414Z,9.17
2019-02-26T03:04:47.275Z,9.37
2019-02-26T03:07:20.803Z,8.37
2019-02-26T03:09:50.862Z,10.37
2019-02-26T03:12:21.786Z,7.93
2019-02-26T03:14:52.678Z,10.90
2019-02-26T03:17:23.608Z,9.40
2019-02-26T03:19:56.017Z,10.23
2019-02-26T03:22:27.171Z,8.53
2019-02-26T03:24:59.586Z,8.67
2019-02-26T03:27:33.639Z,8.90
2019-02-26T03:30:03.998Z,9.30
2019-02-26T03:32:36.639Z,8.93
2019-02-26T03:35:10.164Z,9.17
2019-02-26T03:37:40.993Z,9.23
2019-02-26T03:40:13.693Z,9.50
2019-02-26T03:42:46.279Z,9.93
2019-02-26T03:45:23.607Z,11.40
2019-02-26T03:47:50.319Z,10.90
2019-02-26T03:50:21.223Z,9.97
2019-02-26T03:52:52.641Z,10.50
2019-02-26T03:55:23.758Z,10.47
2019-02-26T03:57:57.012Z,9.77
2019-02-26T04:00:27.276Z,10.30
2019-02-26T04:02:58.233Z,10.30
2019-02-26T04:05:29.136Z,9.83
2019-02-26T04:08:01.689Z,9.60
2019-02-26T04:10:32.775Z,9.30
2019-02-26T04:13:03.803Z,9.30
2019-02-26T04:15:36.407Z,10.00
2019-02-26T04:18:07.616Z,10.07
2019-02-26T04:20:43.445Z,10.30
2019-02-26T04:23:13.439Z,9.90
2019-02-26T04:25:54.169Z,9.73
2019-02-26T04:28:36.498Z,8.97
2019-02-26T04:31:27.567Z,10.57
2019-02-26T04:34:17.772Z,10.50
2019-02-26T04:36:54.553Z,10.20
2019-02-26T04:39:47.504Z,11.17
2019-02-26T04:42:45.500Z,11.10
2019-02-26T04:45:26.061Z,11.17
2019-02-26T04:48:00.764Z,10.73
2019-02-26T04:50:35.683Z,11.13
2019-02-26T04:53:11.040Z,11.97
2019-02-26T04:55:44.709Z,13.97
2019-02-26T04:58:15.559Z,12.67
2019-02-26T05:00:47.217Z,12.70
2019-02-26T05:03:20.186Z,12.90
2019-02-26T05:05:53.740Z,13.80
2019-02-26T05:08:23.659Z,15.47
2019-02-26T05:10:57.290Z,16.40
2019-02-26T05:13:29.317Z,20.47
2019-02-26T05:16:00.108Z,25.23
2019-02-26T05:18:33.712Z,23.13
2019-02-26T05:21:05.255Z,21.63
2019-02-26T05:23:36.859Z,18.53
2019-02-26T05:26:11.007Z,19.37
2019-02-26T05:28:41.833Z,17.90
2019-02-26T05:31:15.132Z,17.67
2019-02-26T05:33:46.813Z,19.80
2019-02-26T05:36:18.611Z,18.37
2019-02-26T05:38:51.732Z,18.20
2019-02-26T05:41:22.439Z,17.63
2019-02-26T05:43:56.055Z,23.23
2019-02-26T05:46:27.489Z,21.53
2019-02-26T05:48:58.589Z,21.30
2019-02-26T05:51:32.480Z,23.93
2019-02-26T05:54:05.693Z,17.50
2019-02-26T05:56:37.381Z,19.20
2019-02-26T05:59:09.513Z,17.80
2019-02-26T06:01:40.329Z,19.03
2019-02-26T06:04:12.297Z,18.77
2019-02-26T06:06:44.220Z,20.17
2019-02-26T06:09:15.707Z,20.53
2019-02-26T06:11:49.882Z,25.93
2019-02-26T06:14:19.266Z,23.93
2019-02-26T06:16:52.618Z,33.90
2019-02-26T06:19:25.711Z,28.00
2019-02-26T06:21:56.713Z,25.60
2019-02-26T06:24:29.579Z,30.83
2019-02-26T06:27:00.339Z,23.63
2019-02-26T06:29:32.637Z,21.70
2019-02-26T06:32:12.580Z,26.40
2019-02-26T06:34:43.480Z,33.27
2019-02-26T06:37:24.186Z,26.47
2019-02-26T06:39:57.363Z,24.87
2019-02-26T06:42:28.346Z,24.33
2019-02-26T06:45:00.361Z,21.27
2019-02-26T06:47:33.226Z,19.63
2019-02-26T06:50:07.555Z,19.17
2019-02-26T06:52:39.924Z,22.20
2019-02-26T06:55:12.004Z,24.07
2019-02-26T06:57:46.335Z,25.13
2019-02-26T07:00:21.793Z,24.97
2019-02-26T07:02:51.853Z,24.27
2019-02-26T07:05:24.492Z,22.23
2019-02-26T07:07:57.032Z,23.63
2019-02-26T07:10:29.537Z,20.73
2019-02-26T07:13:02.138Z,18.93
2019-02-26T07:15:33.416Z,16.83
2019-02-26T07:18:07.140Z,17.03
2019-02-26T07:20:39.991Z,15.37
2019-02-26T07:23:10.597Z,19.40
2019-02-26T07:25:44.090Z,19.60
2019-02-26T07:28:15.698Z,17.47
2019-02-26T07:30:47.758Z,15.90
2019-02-26T07:33:18.721Z,17.07
2019-02-26T07:35:49.599Z,14.07
2019-02-26T07:38:21.274Z,16.77
2019-02-26T07:40:54.326Z,16.47
2019-02-26T07:43:25.824Z,14.07
2019-02-26T07:45:56.732Z,13.37
2019-02-26T07:48:29.466Z,17.20
2019-02-26T07:51:00.381Z,7.50
2019-02-26T07:53:31.327Z,13.60
2019-02-26T07:56:04.514Z,16.05
2019-02-26T07:58:36.081Z,7.42
2019-02-26T08:01:07.594Z,4.65
2019-02-26T08:03:38.520Z,8.05
2019-02-26T08:06:11.644Z,6.58
2019-02-26T08:08:44.298Z,11.73
2019-02-26T08:11:14.953Z,7.08
2019-02-26T08:13:45.945Z,4.42
2019-02-26T08:16:18.365Z,4.03
2019-02-26T08:18:51.662Z,3.87
2019-02-26T08:21:24.351Z,4.47
2019-02-26T08:23:54.719Z,2.70
2019-02-26T08:26:26.746Z,2.37
2019-02-26T08:29:00.054Z,2.62
2019-02-26T08:31:30.629Z,2.70
2019-02-26T08:34:01.571Z,3.35
2019-02-26T08:36:32.457Z,4.08
2019-02-26T08:39:05.866Z,3.08
2019-02-26T08:41:36.756Z,2.60
2019-02-26T08:44:07.764Z,3.25
2019-02-26T08:46:39.789Z,2.47
2019-02-26T08:49:13.278Z,2.42
2019-02-26T08:51:43.866Z,2.22
2019-02-26T08:54:20.810Z,2.55
2019-02-26T08:56:47.395Z,4.30
2019-02-26T08:59:20.163Z,2.30
2019-02-26T09:01:51.151Z,2.20
2019-02-26T09:04:23.839Z,2.10
2019-02-26T09:06:57.067Z,2.47
2019-02-26T09:09:28.223Z,2.45
2019-02-26T09:12:01.201Z,2.52
2019-02-26T09:14:37.323Z,3.60
2019-02-26T09:17:05.455Z,3.08
2019-02-26T09:19:38.057Z,4.33
2019-02-26T09:22:11.782Z,2.02
2019-02-26T09:24:41.794Z,3.60
2019-02-26T09:27:12.683Z,2.80
2019-02-26T09:29:48.849Z,2.37
2019-02-26T09:32:18.241Z,2.67
2019-02-26T09:34:48.914Z,2.65
2019-02-26T09:37:19.811Z,1.95
2019-02-26T09:39:52.460Z,2.30
2019-02-26T09:42:25.589Z,2.87
2019-02-26T09:44:57.755Z,3.85
2019-02-26T09:47:32.844Z,2.72
2019-02-26T09:50:02.223Z,2.67
2019-02-26T09:52:33.123Z,2.57
2019-02-26T09:55:05.054Z,2.40
2019-02-26T09:57:36.016Z,3.50
2019-02-26T10:00:14.656Z,2.70
2019-02-26T10:02:47.088Z,4.10
2019-02-26T10:05:18.491Z,2.27
2019-02-26T10:07:52.298Z,2.00
2019-02-26T10:10:22.809Z,2.20
2019-02-26T10:12:56.284Z,2.30
2019-02-26T10:15:26.333Z,3.27
2019-02-26T10:17:59.553Z,2.30
2019-02-26T10:20:31.867Z,2.70
2019-02-26T10:23:05.655Z,1.93
2019-02-26T10:25:38.713Z,2.23
2019-02-26T10:28:09.617Z,2.30
2019-02-26T10:30:41.688Z,2.50
2019-02-26T10:33:12.862Z,2.70
2019-02-26T10:35:45.587Z,3.10
2019-02-26T10:38:16.478Z,2.00
2019-02-26T10:40:53.790Z,2.40
2019-02-26T10:43:20.841Z,2.33
2019-02-26T10:45:54.388Z,2.90
2019-02-26T10:48:25.171Z,2.73
2019-02-26T10:50:57.023Z,2.80
2019-02-26T10:53:27.884Z,2.93
2019-02-26T10:55:58.820Z,2.17
2019-02-26T10:58:29.722Z,2.20
2019-02-26T11:01:02.499Z,2.20
2019-02-26T11:03:37.899Z,2.35
2019-02-26T11:06:07.385Z,1.90
2019-02-26T11:08:38.520Z,2.67
2019-02-26T11:11:10.551Z,2.20
2019-02-26T11:13:50.978Z,2.23
2019-02-26T11:16:25.145Z,2.20
2019-02-26T11:18:55.524Z,2.20
2019-02-26T11:21:26.448Z,2.00
2019-02-26T11:23:58.465Z,2.17
2019-02-26T11:26:30.562Z,2.30
2019-02-26T11:29:02.559Z,2.40
2019-02-26T11:31:33.537Z,2.40
2019-02-26T11:34:09.239Z,2.50
2019-02-26T11:36:38.973Z,1.75
2019-02-26T11:39:11.933Z,3.70
2019-02-26T11:41:43.202Z,3.37
2019-02-26T11:44:19.025Z,2.20
2019-02-26T11:46:49.353Z,2.27
2019-02-26T11:49:21.659Z,2.27
2019-02-26T11:51:52.124Z,2.53
2019-02-26T11:54:23.021Z,3.33
2019-02-26T11:56:53.943Z,2.97
2019-02-26T11:59:24.853Z,2.50
2019-02-26T12:01:57.280Z,2.25
2019-02-26T12:04:28.412Z,2.77
2019-02-26T12:07:01.790Z,2.47
2019-02-26T12:12:06.217Z,2.35
2019-02-26T12:14:38.037Z,2.60
2019-02-26T12:17:09.802Z,2.37
2019-02-26T12:19:40.703Z,2.87
2019-02-26T12:22:11.639Z,3.17
2019-02-26T12:24:42.533Z,3.10
2019-02-26T12:27:18.087Z,2.67
2019-02-26T12:29:48.305Z,3.10
2019-02-26T12:32:19.973Z,2.65
2019-02-26T12:34:51.547Z,3.05
2019-02-26T12:37:22.429Z,5.10
2019-02-26T12:39:55.472Z,2.40
2019-02-26T12:42:25.984Z,2.10
2019-02-26T12:44:58.234Z,3.00
2019-02-26T12:47:29.550Z,2.60
2019-02-26T12:50:01.988Z,3.67
2019-02-26T12:52:33.042Z,2.17
2019-02-26T12:55:08.012Z,2.57
2019-02-26T12:57:37.358Z,2.57
2019-02-26T13:00:20.052Z,1.87
2019-02-26T13:02:52.315Z,2.40
2019-02-26T13:05:23.484Z,2.33
2019-02-26T13:07:54.388Z,2.20
2019-02-26T13:10:26.257Z,2.27
2019-02-26T13:15:29.743Z,2.50
2019-02-26T13:18:00.709Z,1.93
2019-02-26T13:20:31.605Z,2.47
2019-02-26T13:23:16.407Z,2.77
2019-02-26T13:25:35.115Z,2.30
2019-02-26T13:28:06.032Z,2.40
2019-02-26T13:30:36.918Z,2.17
2019-02-26T13:33:10.872Z,2.67
2019-02-26T13:35:42.791Z,2.22
2019-02-26T13:38:14.157Z,2.20
2019-02-26T13:40:45.099Z,2.08
2019-02-26T13:43:16.886Z,2.17
2019-02-26T13:45:47.779Z,2.47
2019-02-26T13:48:20.339Z,2.60
2019-02-26T13:50:51.252Z,2.60
2019-02-26T13:53:22.159Z,3.00
2019-02-26T13:55:53.050Z,2.80
2019-02-26T13:58:24.059Z,2.30
2019-02-26T14:00:54.950Z,2.97
2019-02-26T14:03:25.900Z,2.30
2019-02-26T14:05:56.790Z,3.17
2019-02-26T14:08:27.709Z,3.70
2019-02-26T14:10:58.602Z,2.93
2019-02-26T14:13:29.528Z,2.40
2019-02-26T14:16:00.411Z,2.53
2019-02-26T14:18:31.359Z,7.83
2019-02-26T14:21:02.255Z,4.13
2019-02-26T14:23:35.162Z,2.30
2019-02-26T14:26:05.971Z,3.10
2019-02-26T14:28:36.939Z,4.50
2019-02-26T14:31:07.828Z,5.43
2019-02-26T14:33:39.142Z,5.87
2019-02-26T14:36:10.043Z,4.70
2019-02-26T14:38:40.954Z,7.73
2019-02-26T14:41:11.856Z,3.60
2019-02-26T14:43:43.806Z,3.50
2019-02-26T14:46:14.691Z,3.30
2019-02-26T14:48:45.674Z,6.27
2019-02-26T14:51:17.765Z,5.03
2019-02-26T14:53:49.246Z,11.03
2019-02-26T14:56:20.249Z,5.83
2019-02-26T14:58:51.164Z,5.83
2019-02-26T15:01:24.592Z,4.50
2019-02-26T15:03:59.647Z,4.30
2019-02-26T15:06:30.356Z,5.25
2019-02-26T15:09:01.284Z,5.40
2019-02-26T15:11:32.251Z,3.63
2019-02-26T15:14:03.453Z,4.43
2019-02-26T15:16:34.354Z,5.57
2019-02-26T15:19:05.572Z,4.97
2019-02-26T15:21:36.471Z,7.50
2019-02-26T15:24:07.404Z,8.60
2019-02-26T15:26:38.319Z,9.07
2019-02-26T15:29:09.367Z,11.97
2019-02-26T15:31:40.261Z,7.93
2019-02-26T15:34:11.218Z,9.77
2019-02-26T15:36:42.106Z,9.70
2019-02-26T15:39:13.034Z,12.30
2019-02-26T15:41:43.926Z,9.20
2019-02-26T15:44:15.677Z,14.13
2019-02-26T15:46:46.666Z,15.17
2019-02-26T15:49:17.632Z,10.30
2019-02-26T15:51:48.774Z,11.17
2019-02-26T15:54:21.173Z,13.60
2019-02-26T15:56:52.365Z,23.53
2019-02-26T15:59:23.298Z,23.00
2019-02-26T16:01:55.538Z,20.03
2019-02-26T16:04:27.029Z,9.33
2019-02-26T16:06:58.202Z,13.97
2019-02-26T16:09:29.161Z,22.03
2019-02-26T16:12:00.147Z,20.87
2019-02-26T16:14:31.069Z,16.43
2019-02-26T16:17:01.975Z,13.00
2019-02-26T16:19:32.956Z,26.57
2019-02-26T16:22:03.871Z,107.03
2019-02-26T16:24:34.821Z,95.47
2019-02-26T16:27:05.734Z,79.97
2019-02-26T16:29:36.675Z,40.70
2019-02-26T16:32:07.794Z,40.93
2019-02-26T16:34:38.754Z,39.40
2019-02-26T16:37:09.726Z,28.30
2019-02-26T16:39:40.942Z,25.40
2019-02-26T16:42:12.316Z,30.40
2019-02-26T16:44:44.046Z,23.57
2019-02-26T16:47:15.302Z,20.83
2019-02-26T16:49:46.801Z,27.37
2019-02-26T16:52:17.707Z,45.77
2019-02-26T16:54:48.720Z,42.70
2019-02-26T16:57:19.638Z,34.47
2019-02-26T16:59:50.578Z,21.33
2019-02-26T17:02:21.654Z,14.50
2019-02-26T17:04:52.607Z,13.20
2019-02-26T17:07:23.510Z,12.40
2019-02-26T17:09:55.675Z,15.23
2019-02-26T17:12:29.143Z,17.40
2019-02-26T17:14:59.703Z,31.67
2019-02-26T17:17:30.608Z,36.10
2019-02-26T17:20:01.569Z,31.17
2019-02-26T17:22:32.469Z,30.33
2019-02-26T17:25:03.884Z,39.17
2019-02-26T17:27:36.595Z,48.63
2019-02-26T17:30:12.637Z,45.77
2019-02-26T17:32:43.549Z,40.83
2019-02-26T17:35:15.871Z,37.13
2019-02-26T17:37:46.777Z,37.87
2019-02-26T17:40:21.773Z,40.07
2019-02-26T17:42:54.267Z,38.97
2019-02-26T17:45:37.193Z,36.63
2019-02-26T17:48:08.842Z,35.47
2019-02-26T17:50:43.303Z,33.53
2019-02-26T17:53:13.727Z,33.83
2019-02-26T17:55:44.659Z,33.17
2019-02-26T17:58:15.567Z,38.70
2019-02-26T18:00:48.147Z,36.17
2019-02-26T18:03:19.053Z,35.37
2019-02-26T18:05:51.568Z,39.57
2019-02-26T18:08:22.637Z,43.70
2019-02-26T18:10:53.560Z,51.70
2019-02-26T18:13:24.462Z,47.43
2019-02-26T18:15:56.840Z,44.23
2019-02-26T18:18:27.983Z,46.93
2019-02-26T18:20:58.954Z,50.03
2019-02-26T18:23:29.855Z,53.30
2019-02-26T18:26:00.791Z,55.80
2019-02-26T18:28:31.703Z,61.50
2019-02-26T18:31:02.647Z,58.97
2019-02-26T18:33:35.473Z,107.10
2019-02-26T18:36:06.227Z,101.23
2019-02-26T18:38:37.154Z,55.60
2019-02-26T18:41:08.089Z,63.27
2019-02-26T18:43:38.988Z,62.63
2019-02-26T18:46:09.932Z,64.30
2019-02-26T18:48:40.838Z,64.47
2019-02-26T18:51:11.836Z,69.87
2019-02-26T18:53:44.597Z,64.30
2019-02-26T18:56:15.407Z,57.67
2019-02-26T18:58:48.754Z,68.73
2019-02-26T19:01:18.941Z,75.97
2019-02-26T19:03:49.925Z,68.80
2019-02-26T19:06:20.923Z,68.63
2019-02-26T19:08:51.848Z,77.47
2019-02-26T19:11:25.377Z,76.77
2019-02-26T19:13:55.475Z,65.33
2019-02-26T19:16:26.418Z,62.17
2019-02-26T19:18:57.329Z,61.70
2019-02-26T19:21:28.277Z,60.50
2019-02-26T19:23:59.191Z,56.80
2019-02-26T19:26:30.195Z,54.23
2019-02-26T19:29:01.110Z,59.50
2019-02-26T19:31:32.126Z,59.23
2019-02-26T19:34:03.025Z,63.47
2019-02-26T19:36:33.982Z,72.63
2019-02-26T19:39:06.276Z,76.50
2019-02-26T19:41:37.221Z,82.07
2019-02-26T19:44:08.126Z,88.37
2019-02-26T19:46:39.869Z,89.63
2019-02-26T19:49:10.783Z,80.33
2019-02-26T19:51:41.750Z,71.43
2019-02-26T19:54:12.674Z,78.03
2019-02-26T19:56:43.661Z,78.50
2019-02-26T19:59:14.563Z,79.20
2019-02-26T20:01:45.857Z,85.90
2019-02-26T20:04:16.898Z,92.87
2019-02-26T20:06:47.885Z,91.80
2019-02-26T20:09:19.033Z,98.87
2019-02-26T20:11:50.005Z,100.33
2019-02-26T20:14:21.727Z,105.07
2019-02-26T20:16:52.859Z,107.53
2019-02-26T20:19:23.787Z,107.87
2019-02-26T20:21:54.759Z,101.93
2019-02-26T20:24:25.667Z,100.77
2019-02-26T20:26:59.394Z,103.03
2019-02-26T20:29:30.308Z,102.07
2019-02-26T20:32:01.323Z,111.63
2019-02-26T20:34:32.234Z,86.30
2019-02-26T20:37:03.297Z,75.10
2019-02-26T20:39:34.210Z,79.07
2019-02-26T20:42:05.762Z,82.83
2019-02-26T20:44:42.428Z,84.10
2019-02-26T20:47:13.540Z,88.50
2019-02-26T20:49:46.349Z,82.43
2019-02-26T20:52:17.091Z,76.27
2019-02-26T20:54:47.999Z,64.77
2019-02-26T20:57:18.943Z,69.97
2019-02-26T20:59:51.892Z,70.70
2019-02-26T21:02:22.493Z,71.80
2019-02-26T21:04:53.403Z,70.50
2019-02-26T21:07:25.099Z,69.60
2019-02-26T21:10:03.538Z,69.00
2019-02-26T21:12:29.376Z,69.63
2019-02-26T21:15:00.363Z,67.13
2019-02-26T21:17:31.312Z,69.73
2019-02-26T21:20:02.215Z,71.20
2019-02-26T21:22:33.984Z,76.57
2019-02-26T21:25:08.501Z,78.73
2019-02-26T21:27:39.043Z,80.13
2019-02-26T21:30:13.178Z,80.33
2019-02-26T21:32:44.132Z,80.10
2019-02-26T21:35:15.044Z,76.97
2019-02-26T21:37:46.012Z,73.57
2019-02-26T21:40:17.530Z,69.63
2019-02-26T21:42:48.489Z,71.87
2019-02-26T21:45:19.492Z,74.77
2019-02-26T21:47:51.231Z,72.33
2019-02-26T21:50:22.970Z,71.07
2019-02-26T21:53:01.212Z,70.47
2019-02-26T21:55:26.719Z,68.93
2019-02-26T21:57:57.657Z,72.27
2019-02-26T22:00:28.576Z,73.07
2019-02-26T22:03:00.087Z,73.00
2019-02-26T22:05:31.174Z,70.73
2019-02-26T22:08:02.138Z,66.90
2019-02-26T22:10:33.056Z,61.50
2019-02-26T22:13:03.996Z,58.87
2019-02-26T22:15:36.180Z,67.27
2019-02-26T22:18:07.235Z,68.00
2019-02-26T22:20:38.156Z,71.90
2019-02-26T22:23:09.161Z,70.23
2019-02-26T22:25:40.069Z,64.90
2019-02-26T22:28:11.011Z,60.73
2019-02-26T22:30:41.925Z,56.40
2019-02-26T22:33:12.871Z,54.73
2019-02-26T22:35:43.785Z,53.13
2019-02-26T22:38:15.501Z,49.70
2019-02-26T22:40:47.030Z,48.17
2019-02-26T22:43:17.968Z,51.00
2019-02-26T22:45:48.880Z,55.03
2019-02-26T22:48:20.830Z,61.97
2019-02-26T22:50:51.737Z,57.53
2019-02-26T22:53:24.215Z,60.83
2019-02-26T22:55:55.131Z,63.60
2019-02-26T22:58:26.067Z,59.40
2019-02-26T23:01:13.395Z,56.13
2019-02-26T23:03:46.054Z,47.23
2019-02-26T23:06:17.752Z,45.83
2019-02-26T23:08:48.903Z,46.03
2019-02-26T23:11:20.473Z,47.80
